sensor_id;sensor_type;location;lat;lon;timestamp;temperature;humidity
31731;DHT22;18310;55.586;12.286;2022-08-11T00:01:48;19.40;65.60
31731;DHT22;18310;55.586;12.286;2022-08-11T00:04:55;19.30;65.50
31731;DHT22;18310;55.586;12.286;2022-08-11T00:08:03;19.30;65.40
31731;DHT22;18310;55.586;12.286;2022-08-11T00:11:09;19.30;65.50
31731;DHT22;18310;55.586;12.286;2022-08-11T00:14:20;19.20;65.30
31731;DHT22;18310;55.586;12.286;2022-08-11T00:17:39;19.30;65.30
31731;DHT22;18310;55.586;12.286;2022-08-11T00:20:45;19.50;65.30
31731;DHT22;18310;55.586;12.286;2022-08-11T00:23:54;19.20;65.30
31731;DHT22;18310;55.586;12.286;2022-08-11T00:27:01;19.20;65.60
31731;DHT22;18310;55.586;12.286;2022-08-11T00:30:07;19.20;65.20
31731;DHT22;18310;55.586;12.286;2022-08-11T00:33:14;19.10;65.50
31731;DHT22;18310;55.586;12.286;2022-08-11T00:36:26;19.20;65.80
31731;DHT22;18310;55.586;12.286;2022-08-11T00:39:43;17.30;64.70
31731;DHT22;18310;55.586;12.286;2022-08-11T00:43:00;19.10;65.80
31731;DHT22;18310;55.586;12.286;2022-08-11T00:46:30;17.80;65.60
31731;DHT22;18310;55.586;12.286;2022-08-11T00:49:51;19.00;66.10
31731;DHT22;18310;55.586;12.286;2022-08-11T00:57:21;19.00;66.20
31731;DHT22;18310;55.586;12.286;2022-08-11T01:01:07;18.90;66.10
31731;DHT22;18310;55.586;12.286;2022-08-11T01:08:45;18.90;66.10
31731;DHT22;18310;55.586;12.286;2022-08-11T01:12:31;18.80;66.00
31731;DHT22;18310;55.586;12.286;2022-08-11T01:20:06;18.70;66.00
31731;DHT22;18310;55.586;12.286;2022-08-11T01:28:26;18.70;66.50
31731;DHT22;18310;55.586;12.286;2022-08-11T01:32:36;18.60;66.30
31731;DHT22;18310;55.586;12.286;2022-08-11T01:40:35;18.60;66.40
31731;DHT22;18310;55.586;12.286;2022-08-11T01:44:12;18.60;66.20
31731;DHT22;18310;55.586;12.286;2022-08-11T01:47:43;18.50;66.00
31731;DHT22;18310;55.586;12.286;2022-08-11T01:51:14;18.50;66.10
31731;DHT22;18310;55.586;12.286;2022-08-11T01:54:29;18.50;66.50
31731;DHT22;18310;55.586;12.286;2022-08-11T01:57:45;18.40;66.20
31731;DHT22;18310;55.586;12.286;2022-08-11T02:01:05;20.20;67.30
31731;DHT22;18310;55.586;12.286;2022-08-11T02:04:24;18.40;66.40
31731;DHT22;18310;55.586;12.286;2022-08-11T02:07:46;18.30;66.10
31731;DHT22;18310;55.586;12.286;2022-08-11T02:11:04;18.30;66.10
31731;DHT22;18310;55.586;12.286;2022-08-11T02:14:45;19.80;67.00
31731;DHT22;18310;55.586;12.286;2022-08-11T02:18:16;18.20;66.00
31731;DHT22;18310;55.586;12.286;2022-08-11T02:21:29;18.20;66.10
31731;DHT22;18310;55.586;12.286;2022-08-11T02:25:02;19.30;67.40
31731;DHT22;18310;55.586;12.286;2022-08-11T02:28:17;18.20;66.20
31731;DHT22;18310;55.586;12.286;2022-08-11T02:31:37;18.10;66.80
31731;DHT22;18310;55.586;12.286;2022-08-11T02:35:27;18.10;67.00
31731;DHT22;18310;55.586;12.286;2022-08-11T02:38:48;19.40;67.20
31731;DHT22;18310;55.586;12.286;2022-08-11T02:42:04;18.60;66.70
31731;DHT22;18310;55.586;12.286;2022-08-11T02:45:46;18.00;66.40
31731;DHT22;18310;55.586;12.286;2022-08-11T02:49:04;18.00;66.50
31731;DHT22;18310;55.586;12.286;2022-08-11T02:52:40;18.40;67.00
31731;DHT22;18310;55.586;12.286;2022-08-11T02:55:54;18.90;67.20
31731;DHT22;18310;55.586;12.286;2022-08-11T02:59:23;17.80;66.80
31731;DHT22;18310;55.586;12.286;2022-08-11T03:03:14;17.80;67.10
31731;DHT22;18310;55.586;12.286;2022-08-11T03:06:33;17.80;67.40
31731;DHT22;18310;55.586;12.286;2022-08-11T03:09:45;17.80;67.20
31731;DHT22;18310;55.586;12.286;2022-08-11T03:12:59;17.80;67.10
31731;DHT22;18310;55.586;12.286;2022-08-11T03:16:33;18.10;67.00
31731;DHT22;18310;55.586;12.286;2022-08-11T03:19:59;17.80;66.80
31731;DHT22;18310;55.586;12.286;2022-08-11T03:23:22;17.70;67.00
31731;DHT22;18310;55.586;12.286;2022-08-11T03:26:34;17.70;67.10
31731;DHT22;18310;55.586;12.286;2022-08-11T03:30:02;17.70;66.90
31731;DHT22;18310;55.586;12.286;2022-08-11T03:33:18;17.70;67.80
31731;DHT22;18310;55.586;12.286;2022-08-11T03:37:08;17.70;67.40
31731;DHT22;18310;55.586;12.286;2022-08-11T03:40:52;17.60;67.50
31731;DHT22;18310;55.586;12.286;2022-08-11T03:45:00;17.60;66.50
31731;DHT22;18310;55.586;12.286;2022-08-11T03:48:21;17.50;67.30
31731;DHT22;18310;55.586;12.286;2022-08-11T03:51:38;17.60;67.40
31731;DHT22;18310;55.586;12.286;2022-08-11T03:54:59;17.60;67.90
31731;DHT22;18310;55.586;12.286;2022-08-11T04:07:08;17.60;68.40
31731;DHT22;18310;55.586;12.286;2022-08-11T04:14:53;17.60;68.70
31731;DHT22;18310;55.586;12.286;2022-08-11T04:23:04;17.70;68.00
31731;DHT22;18310;55.586;12.286;2022-08-11T04:27:09;17.70;67.80
31731;DHT22;18310;55.586;12.286;2022-08-11T04:30:57;17.70;67.80
31731;DHT22;18310;55.586;12.286;2022-08-11T04:34:40;17.80;67.80
31731;DHT22;18310;55.586;12.286;2022-08-11T04:38:08;17.80;68.00
31731;DHT22;18310;55.586;12.286;2022-08-11T04:50:07;17.90;68.30
31731;DHT22;18310;55.586;12.286;2022-08-11T04:53:49;18.10;68.80
31731;DHT22;18310;55.586;12.286;2022-08-11T04:57:27;18.30;70.10
31731;DHT22;18310;55.586;12.286;2022-08-11T05:01:10;18.80;71.20
31731;DHT22;18310;55.586;12.286;2022-08-11T05:04:58;19.50;71.00
31731;DHT22;18310;55.586;12.286;2022-08-11T05:12:42;21.20;68.40
31731;DHT22;18310;55.586;12.286;2022-08-11T05:15:53;22.00;67.40
31731;DHT22;18310;55.586;12.286;2022-08-11T05:19:18;22.70;66.90
31731;DHT22;18310;55.586;12.286;2022-08-11T05:22:46;23.40;64.70
31731;DHT22;18310;55.586;12.286;2022-08-11T05:26:11;24.50;62.20
31731;DHT22;18310;55.586;12.286;2022-08-11T05:29:59;24.30;61.70
31731;DHT22;18310;55.586;12.286;2022-08-11T05:33:31;25.10;59.40
31731;DHT22;18310;55.586;12.286;2022-08-11T05:37:03;25.60;59.50
31731;DHT22;18310;55.586;12.286;2022-08-11T05:40:27;26.10;57.40
31731;DHT22;18310;55.586;12.286;2022-08-11T05:43:54;26.80;57.80
31731;DHT22;18310;55.586;12.286;2022-08-11T05:47:24;27.00;56.60
31731;DHT22;18310;55.586;12.286;2022-08-11T05:50:51;27.50;56.10
31731;DHT22;18310;55.586;12.286;2022-08-11T05:54:19;27.90;54.10
31731;DHT22;18310;55.586;12.286;2022-08-11T05:57:41;28.30;53.70
31731;DHT22;18310;55.586;12.286;2022-08-11T06:00:52;28.70;53.10
31731;DHT22;18310;55.586;12.286;2022-08-11T06:03:58;29.10;52.70
31731;DHT22;18310;55.586;12.286;2022-08-11T06:07:26;29.30;51.10
31731;DHT22;18310;55.586;12.286;2022-08-11T06:10:51;29.40;50.20
31731;DHT22;18310;55.586;12.286;2022-08-11T06:14:03;29.80;50.20
31731;DHT22;18310;55.586;12.286;2022-08-11T06:17:09;30.10;50.50
31731;DHT22;18310;55.586;12.286;2022-08-11T06:20:14;31.60;50.10
31731;DHT22;18310;55.586;12.286;2022-08-11T06:23:20;30.60;48.60
31731;DHT22;18310;55.586;12.286;2022-08-11T06:26:27;30.80;48.40
31731;DHT22;18310;55.586;12.286;2022-08-11T06:29:32;31.00;47.40
31731;DHT22;18310;55.586;12.286;2022-08-11T06:32:55;31.20;47.10
31731;DHT22;18310;55.586;12.286;2022-08-11T06:36:03;31.40;46.90
31731;DHT22;18310;55.586;12.286;2022-08-11T06:39:19;31.60;45.50
31731;DHT22;18310;55.586;12.286;2022-08-11T06:42:37;31.70;44.70
31731;DHT22;18310;55.586;12.286;2022-08-11T06:45:56;31.90;44.50
31731;DHT22;18310;55.586;12.286;2022-08-11T06:49:04;32.10;44.90
31731;DHT22;18310;55.586;12.286;2022-08-11T06:52:32;32.40;44.60
31731;DHT22;18310;55.586;12.286;2022-08-11T06:55:41;32.50;44.90
31731;DHT22;18310;55.586;12.286;2022-08-11T06:59:06;32.50;43.00
31731;DHT22;18310;55.586;12.286;2022-08-11T07:02:31;32.90;43.10
31731;DHT22;18310;55.586;12.286;2022-08-11T07:05:46;33.00;42.60
31731;DHT22;18310;55.586;12.286;2022-08-11T07:13:02;33.30;41.80
31731;DHT22;18310;55.586;12.286;2022-08-11T07:16:48;33.30;43.00
31731;DHT22;18310;55.586;12.286;2022-08-11T07:19:56;33.40;42.70
31731;DHT22;18310;55.586;12.286;2022-08-11T07:23:28;33.60;42.70
31731;DHT22;18310;55.586;12.286;2022-08-11T07:26:55;33.40;42.70
31731;DHT22;18310;55.586;12.286;2022-08-11T07:30:17;33.30;42.40
31731;DHT22;18310;55.586;12.286;2022-08-11T07:33:31;33.20;42.30
31731;DHT22;18310;55.586;12.286;2022-08-11T07:37:08;33.70;42.30
31731;DHT22;18310;55.586;12.286;2022-08-11T07:40:20;32.90;41.80
31731;DHT22;18310;55.586;12.286;2022-08-11T07:43:26;29.90;40.30
31731;DHT22;18310;55.586;12.286;2022-08-11T07:46:32;32.20;42.20
31731;DHT22;18310;55.586;12.286;2022-08-11T07:49:55;31.80;42.60
31731;DHT22;18310;55.586;12.286;2022-08-11T07:53:17;31.40;42.80
31731;DHT22;18310;55.586;12.286;2022-08-11T07:56:22;31.00;43.30
31731;DHT22;18310;55.586;12.286;2022-08-11T07:59:47;30.70;43.70
31731;DHT22;18310;55.586;12.286;2022-08-11T08:03:12;30.30;43.60
31731;DHT22;18310;55.586;12.286;2022-08-11T08:06:35;30.10;44.10
31731;DHT22;18310;55.586;12.286;2022-08-11T08:09:58;29.80;44.70
31731;DHT22;18310;55.586;12.286;2022-08-11T08:13:20;29.70;45.00
31731;DHT22;18310;55.586;12.286;2022-08-11T08:16:41;29.40;44.90
31731;DHT22;18310;55.586;12.286;2022-08-11T08:20:04;29.30;45.30
31731;DHT22;18310;55.586;12.286;2022-08-11T08:23:12;29.10;45.30
31731;DHT22;18310;55.586;12.286;2022-08-11T08:26:17;28.90;45.60
31731;DHT22;18310;55.586;12.286;2022-08-11T08:29:39;28.80;45.40
31731;DHT22;18310;55.586;12.286;2022-08-11T08:33:01;28.70;45.50
31731;DHT22;18310;55.586;12.286;2022-08-11T08:36:06;28.50;45.60
31731;DHT22;18310;55.586;12.286;2022-08-11T08:39:20;28.40;46.00
31731;DHT22;18310;55.586;12.286;2022-08-11T08:42:30;28.30;45.00
31731;DHT22;18310;55.586;12.286;2022-08-11T08:45:47;28.40;44.60
31731;DHT22;18310;55.586;12.286;2022-08-11T08:48:54;28.40;44.60
31731;DHT22;18310;55.586;12.286;2022-08-11T08:52:05;28.40;44.20
31731;DHT22;18310;55.586;12.286;2022-08-11T08:55:35;28.50;43.70
31731;DHT22;18310;55.586;12.286;2022-08-11T08:58:49;28.50;43.80
31731;DHT22;18310;55.586;12.286;2022-08-11T09:01:56;28.60;43.00
31731;DHT22;18310;55.586;12.286;2022-08-11T09:05:02;28.70;42.30
31731;DHT22;18310;55.586;12.286;2022-08-11T09:08:07;28.70;42.60
31731;DHT22;18310;55.586;12.286;2022-08-11T09:11:14;28.70;42.70
31731;DHT22;18310;55.586;12.286;2022-08-11T09:14:37;28.70;42.70
31731;DHT22;18310;55.586;12.286;2022-08-11T09:18:02;28.60;42.40
31731;DHT22;18310;55.586;12.286;2022-08-11T09:21:11;28.60;42.40
31731;DHT22;18310;55.586;12.286;2022-08-11T09:24:38;28.50;42.30
31731;DHT22;18310;55.586;12.286;2022-08-11T09:28:03;28.50;42.80
31731;DHT22;18310;55.586;12.286;2022-08-11T09:31:10;28.40;42.30
31731;DHT22;18310;55.586;12.286;2022-08-11T09:34:15;28.40;42.90
31731;DHT22;18310;55.586;12.286;2022-08-11T09:37:20;28.40;43.20
31731;DHT22;18310;55.586;12.286;2022-08-11T09:40:57;28.30;42.90
31731;DHT22;18310;55.586;12.286;2022-08-11T09:44:04;28.30;42.90
31731;DHT22;18310;55.586;12.286;2022-08-11T09:47:28;28.30;43.00
31731;DHT22;18310;55.586;12.286;2022-08-11T09:50:33;28.30;43.00
31731;DHT22;18310;55.586;12.286;2022-08-11T09:53:38;28.30;43.30
31731;DHT22;18310;55.586;12.286;2022-08-11T09:57:04;28.30;42.70
31731;DHT22;18310;55.586;12.286;2022-08-11T10:00:30;28.40;42.60
31731;DHT22;18310;55.586;12.286;2022-08-11T10:03:42;28.40;42.50
31731;DHT22;18310;55.586;12.286;2022-08-11T10:06:49;28.40;42.50
31731;DHT22;18310;55.586;12.286;2022-08-11T10:10:06;28.50;42.90
31731;DHT22;18310;55.586;12.286;2022-08-11T10:13:15;28.40;43.40
31731;DHT22;18310;55.586;12.286;2022-08-11T10:16:44;28.50;42.70
31731;DHT22;18310;55.586;12.286;2022-08-11T10:19:48;28.50;42.80
31731;DHT22;18310;55.586;12.286;2022-08-11T10:23:08;28.50;43.40
31731;DHT22;18310;55.586;12.286;2022-08-11T10:26:30;28.50;43.90
31731;DHT22;18310;55.586;12.286;2022-08-11T10:29:55;28.40;44.50
31731;DHT22;18310;55.586;12.286;2022-08-11T10:33:30;28.40;44.30
31731;DHT22;18310;55.586;12.286;2022-08-11T10:37:00;28.40;44.20
31731;DHT22;18310;55.586;12.286;2022-08-11T10:40:06;28.20;44.50
31731;DHT22;18310;55.586;12.286;2022-08-11T10:43:12;28.10;45.00
31731;DHT22;18310;55.586;12.286;2022-08-11T10:46:37;28.00;45.40
31731;DHT22;18310;55.586;12.286;2022-08-11T10:50:01;27.90;45.30
31731;DHT22;18310;55.586;12.286;2022-08-11T10:53:23;27.90;45.40
31731;DHT22;18310;55.586;12.286;2022-08-11T10:56:44;27.80;45.60
31731;DHT22;18310;55.586;12.286;2022-08-11T11:00:09;27.90;45.70
31731;DHT22;18310;55.586;12.286;2022-08-11T11:03:16;27.70;46.40
31731;DHT22;18310;55.586;12.286;2022-08-11T11:06:28;27.70;47.20
31731;DHT22;18310;55.586;12.286;2022-08-11T11:09:41;27.70;47.50
31731;DHT22;18310;55.586;12.286;2022-08-11T11:12:54;27.60;47.50
31731;DHT22;18310;55.586;12.286;2022-08-11T11:16:17;27.80;48.00
31731;DHT22;18310;55.586;12.286;2022-08-11T11:19:39;27.50;48.50
31731;DHT22;18310;55.586;12.286;2022-08-11T11:22:50;27.30;48.00
31731;DHT22;18310;55.586;12.286;2022-08-11T11:26:16;27.20;47.80
31731;DHT22;18310;55.586;12.286;2022-08-11T11:29:53;27.10;47.90
31731;DHT22;18310;55.586;12.286;2022-08-11T11:33:22;27.10;48.50
31731;DHT22;18310;55.586;12.286;2022-08-11T11:36:40;27.10;48.20
31731;DHT22;18310;55.586;12.286;2022-08-11T11:39:49;28.30;48.20
31731;DHT22;18310;55.586;12.286;2022-08-11T11:42:56;27.10;47.40
31731;DHT22;18310;55.586;12.286;2022-08-11T11:46:01;27.20;47.20
31731;DHT22;18310;55.586;12.286;2022-08-11T11:49:07;27.20;46.10
31731;DHT22;18310;55.586;12.286;2022-08-11T11:52:19;27.20;45.90
31731;DHT22;18310;55.586;12.286;2022-08-11T11:55:27;27.30;45.50
31731;DHT22;18310;55.586;12.286;2022-08-11T11:58:31;27.30;44.60
31731;DHT22;18310;55.586;12.286;2022-08-11T12:01:54;27.30;44.60
31731;DHT22;18310;55.586;12.286;2022-08-11T12:04:59;27.30;44.70
31731;DHT22;18310;55.586;12.286;2022-08-11T12:08:04;27.30;44.50
31731;DHT22;18310;55.586;12.286;2022-08-11T12:11:20;27.40;44.40
31731;DHT22;18310;55.586;12.286;2022-08-11T12:14:44;27.40;44.30
31731;DHT22;18310;55.586;12.286;2022-08-11T12:17:48;27.40;43.90
31731;DHT22;18310;55.586;12.286;2022-08-11T12:20:53;27.40;43.70
31731;DHT22;18310;55.586;12.286;2022-08-11T12:23:59;27.50;43.70
31731;DHT22;18310;55.586;12.286;2022-08-11T12:27:23;27.50;43.40
31731;DHT22;18310;55.586;12.286;2022-08-11T12:30:29;27.50;43.40
31731;DHT22;18310;55.586;12.286;2022-08-11T12:33:33;27.50;43.30
31731;DHT22;18310;55.586;12.286;2022-08-11T12:36:45;27.60;43.40
31731;DHT22;18310;55.586;12.286;2022-08-11T12:39:57;27.60;42.80
31731;DHT22;18310;55.586;12.286;2022-08-11T12:43:45;27.60;42.50
31731;DHT22;18310;55.586;12.286;2022-08-11T12:47:07;27.70;42.70
31731;DHT22;18310;55.586;12.286;2022-08-11T12:50:12;27.70;43.20
31731;DHT22;18310;55.586;12.286;2022-08-11T12:53:36;27.70;43.20
31731;DHT22;18310;55.586;12.286;2022-08-11T12:56:47;26.70;41.70
31731;DHT22;18310;55.586;12.286;2022-08-11T13:00:13;27.90;42.50
31731;DHT22;18310;55.586;12.286;2022-08-11T13:03:35;28.00;42.10
31731;DHT22;18310;55.586;12.286;2022-08-11T13:07:00;28.00;42.30
31731;DHT22;18310;55.586;12.286;2022-08-11T13:10:05;28.00;42.30
31731;DHT22;18310;55.586;12.286;2022-08-11T13:13:18;28.10;42.30
31731;DHT22;18310;55.586;12.286;2022-08-11T13:16:44;28.10;42.30
31731;DHT22;18310;55.586;12.286;2022-08-11T13:20:08;27.20;41.80
31731;DHT22;18310;55.586;12.286;2022-08-11T13:23:15;28.00;42.80
31731;DHT22;18310;55.586;12.286;2022-08-11T13:26:20;28.00;43.00
31731;DHT22;18310;55.586;12.286;2022-08-11T13:29:48;28.00;43.10
31731;DHT22;18310;55.586;12.286;2022-08-11T13:32:56;28.00;42.90
31731;DHT22;18310;55.586;12.286;2022-08-11T13:36:03;28.00;43.20
31731;DHT22;18310;55.586;12.286;2022-08-11T13:39:09;27.80;43.40
31731;DHT22;18310;55.586;12.286;2022-08-11T13:42:15;28.00;43.40
31731;DHT22;18310;55.586;12.286;2022-08-11T13:45:23;28.00;43.20
31731;DHT22;18310;55.586;12.286;2022-08-11T13:48:30;27.90;43.20
31731;DHT22;18310;55.586;12.286;2022-08-11T13:51:35;28.00;43.30
31731;DHT22;18310;55.586;12.286;2022-08-11T13:54:42;27.90;43.00
31731;DHT22;18310;55.586;12.286;2022-08-11T13:57:51;27.80;43.30
31731;DHT22;18310;55.586;12.286;2022-08-11T14:01:17;27.90;43.30
31731;DHT22;18310;55.586;12.286;2022-08-11T14:04:48;27.90;43.40
31731;DHT22;18310;55.586;12.286;2022-08-11T14:08:00;27.80;43.40
31731;DHT22;18310;55.586;12.286;2022-08-11T14:11:06;27.70;43.60
31731;DHT22;18310;55.586;12.286;2022-08-11T14:14:54;27.50;43.10
31731;DHT22;18310;55.586;12.286;2022-08-11T14:18:15;27.50;43.50
31731;DHT22;18310;55.586;12.286;2022-08-11T14:21:23;27.40;44.20
31731;DHT22;18310;55.586;12.286;2022-08-11T14:24:45;27.30;44.30
31731;DHT22;18310;55.586;12.286;2022-08-11T14:27:50;27.20;44.30
31731;DHT22;18310;55.586;12.286;2022-08-11T14:31:15;27.20;44.60
31731;DHT22;18310;55.586;12.286;2022-08-11T14:34:21;27.10;45.00
31731;DHT22;18310;55.586;12.286;2022-08-11T14:37:32;27.10;44.80
31731;DHT22;18310;55.586;12.286;2022-08-11T14:40:37;27.00;44.50
31731;DHT22;18310;55.586;12.286;2022-08-11T14:43:58;27.00;44.60
31731;DHT22;18310;55.586;12.286;2022-08-11T14:47:21;27.00;44.60
31731;DHT22;18310;55.586;12.286;2022-08-11T14:50:28;26.90;44.90
31731;DHT22;18310;55.586;12.286;2022-08-11T14:53:35;26.90;44.80
31731;DHT22;18310;55.586;12.286;2022-08-11T14:56:39;27.60;45.30
31731;DHT22;18310;55.586;12.286;2022-08-11T14:59:43;26.90;45.10
31731;DHT22;18310;55.586;12.286;2022-08-11T15:02:51;26.90;45.00
31731;DHT22;18310;55.586;12.286;2022-08-11T15:06:15;26.80;45.10
31731;DHT22;18310;55.586;12.286;2022-08-11T15:09:21;26.80;45.30
31731;DHT22;18310;55.586;12.286;2022-08-11T15:12:26;25.30;43.70
31731;DHT22;18310;55.586;12.286;2022-08-11T15:15:34;26.70;45.10
31731;DHT22;18310;55.586;12.286;2022-08-11T15:18:57;26.70;45.20
31731;DHT22;18310;55.586;12.286;2022-08-11T15:22:03;26.70;45.50
31731;DHT22;18310;55.586;12.286;2022-08-11T15:25:42;26.70;45.30
31731;DHT22;18310;55.586;12.286;2022-08-11T15:28:52;26.70;45.30
31731;DHT22;18310;55.586;12.286;2022-08-11T15:32:15;26.70;45.40
31731;DHT22;18310;55.586;12.286;2022-08-11T15:35:38;26.70;45.20
31731;DHT22;18310;55.586;12.286;2022-08-11T15:39:03;26.70;45.20
31731;DHT22;18310;55.586;12.286;2022-08-11T15:42:23;26.70;45.20
31731;DHT22;18310;55.586;12.286;2022-08-11T15:45:45;26.70;45.00
31731;DHT22;18310;55.586;12.286;2022-08-11T15:48:56;26.60;45.00
31731;DHT22;18310;55.586;12.286;2022-08-11T15:52:06;26.60;44.80
31731;DHT22;18310;55.586;12.286;2022-08-11T15:55:13;25.50;44.20
31731;DHT22;18310;55.586;12.286;2022-08-11T15:58:20;26.50;44.90
31731;DHT22;18310;55.586;12.286;2022-08-11T16:01:44;26.60;45.20
31731;DHT22;18310;55.586;12.286;2022-08-11T16:05:11;26.50;45.10
31731;DHT22;18310;55.586;12.286;2022-08-11T16:08:39;27.90;46.00
31731;DHT22;18310;55.586;12.286;2022-08-11T16:11:45;26.40;44.90
31731;DHT22;18310;55.586;12.286;2022-08-11T16:14:55;26.40;45.00
31731;DHT22;18310;55.586;12.286;2022-08-11T16:18:23;26.40;45.00
31731;DHT22;18310;55.586;12.286;2022-08-11T16:21:42;26.30;45.10
31731;DHT22;18310;55.586;12.286;2022-08-11T16:24:48;26.30;45.30
31731;DHT22;18310;55.586;12.286;2022-08-11T16:28:14;26.30;45.40
31731;DHT22;18310;55.586;12.286;2022-08-11T16:31:25;26.20;45.20
31731;DHT22;18310;55.586;12.286;2022-08-11T16:34:32;25.80;45.00
31731;DHT22;18310;55.586;12.286;2022-08-11T16:37:56;26.10;45.30
31731;DHT22;18310;55.586;12.286;2022-08-11T16:41:18;25.60;45.50
31731;DHT22;18310;55.586;12.286;2022-08-11T16:44:38;26.00;45.50
31731;DHT22;18310;55.586;12.286;2022-08-11T16:48:02;25.90;45.40
31731;DHT22;18310;55.586;12.286;2022-08-11T16:51:30;25.90;45.50
31731;DHT22;18310;55.586;12.286;2022-08-11T16:54:35;25.80;45.60
31731;DHT22;18310;55.586;12.286;2022-08-11T16:57:40;25.70;45.60
31731;DHT22;18310;55.586;12.286;2022-08-11T17:01:02;25.70;45.80
31731;DHT22;18310;55.586;12.286;2022-08-11T17:04:12;26.00;46.10
31731;DHT22;18310;55.586;12.286;2022-08-11T17:07:40;25.60;45.80
31731;DHT22;18310;55.586;12.286;2022-08-11T17:11:04;25.60;46.20
31731;DHT22;18310;55.586;12.286;2022-08-11T17:14:34;25.60;46.30
31731;DHT22;18310;55.586;12.286;2022-08-11T17:17:40;25.60;46.70
31731;DHT22;18310;55.586;12.286;2022-08-11T17:20:45;25.60;46.60
31731;DHT22;18310;55.586;12.286;2022-08-11T17:23:52;25.50;46.60
31731;DHT22;18310;55.586;12.286;2022-08-11T17:26:58;25.50;46.60
31731;DHT22;18310;55.586;12.286;2022-08-11T17:30:06;25.20;46.60
31731;DHT22;18310;55.586;12.286;2022-08-11T17:33:13;25.40;46.70
31731;DHT22;18310;55.586;12.286;2022-08-11T17:36:42;24.00;46.00
31731;DHT22;18310;55.586;12.286;2022-08-11T17:39:48;25.30;47.00
31731;DHT22;18310;55.586;12.286;2022-08-11T17:42:56;25.30;47.30
31731;DHT22;18310;55.586;12.286;2022-08-11T17:46:20;25.30;47.50
31731;DHT22;18310;55.586;12.286;2022-08-11T17:49:43;25.20;47.30
31731;DHT22;18310;55.586;12.286;2022-08-11T17:52:49;25.20;47.30
31731;DHT22;18310;55.586;12.286;2022-08-11T17:56:12;25.20;47.80
31731;DHT22;18310;55.586;12.286;2022-08-11T17:59:35;25.10;47.70
31731;DHT22;18310;55.586;12.286;2022-08-11T18:02:55;25.10;47.90
31731;DHT22;18310;55.586;12.286;2022-08-11T18:06:21;25.00;47.80
31731;DHT22;18310;55.586;12.286;2022-08-11T18:09:37;25.00;48.20
31731;DHT22;18310;55.586;12.286;2022-08-11T18:13:00;25.00;48.40
31731;DHT22;18310;55.586;12.286;2022-08-11T18:16:22;25.00;48.60
31731;DHT22;18310;55.586;12.286;2022-08-11T18:19:43;24.90;48.70
31731;DHT22;18310;55.586;12.286;2022-08-11T18:23:10;24.80;48.80
31731;DHT22;18310;55.586;12.286;2022-08-11T18:26:50;24.80;49.10
31731;DHT22;18310;55.586;12.286;2022-08-11T18:30:14;24.70;49.00
31731;DHT22;18310;55.586;12.286;2022-08-11T18:33:38;23.10;48.50
31731;DHT22;18310;55.586;12.286;2022-08-11T18:37:14;24.60;49.50
31731;DHT22;18310;55.586;12.286;2022-08-11T18:40:38;24.50;49.80
31731;DHT22;18310;55.586;12.286;2022-08-11T18:44:04;27.30;51.40
31731;DHT22;18310;55.586;12.286;2022-08-11T18:47:27;24.40;50.30
31731;DHT22;18310;55.586;12.286;2022-08-11T18:51:01;24.30;50.30
31731;DHT22;18310;55.586;12.286;2022-08-11T18:54:40;24.30;50.70
31731;DHT22;18310;55.586;12.286;2022-08-11T18:58:07;24.20;50.80
31731;DHT22;18310;55.586;12.286;2022-08-11T19:01:37;24.20;50.90
31731;DHT22;18310;55.586;12.286;2022-08-11T19:05:00;24.10;50.10
31731;DHT22;18310;55.586;12.286;2022-08-11T19:08:52;24.00;50.80
31731;DHT22;18310;55.586;12.286;2022-08-11T19:12:17;24.00;51.20
31731;DHT22;18310;55.586;12.286;2022-08-11T19:15:43;24.00;51.10
31731;DHT22;18310;55.586;12.286;2022-08-11T19:19:08;24.00;51.20
31731;DHT22;18310;55.586;12.286;2022-08-11T19:22:33;24.00;51.40
31731;DHT22;18310;55.586;12.286;2022-08-11T19:25:58;24.00;51.10
31731;DHT22;18310;55.586;12.286;2022-08-11T19:29:21;24.00;51.00
31731;DHT22;18310;55.586;12.286;2022-08-11T19:33:04;24.00;51.00
31731;DHT22;18310;55.586;12.286;2022-08-11T19:36:47;23.90;51.10
31731;DHT22;18310;55.586;12.286;2022-08-11T19:40:10;23.80;51.30
31731;DHT22;18310;55.586;12.286;2022-08-11T19:43:32;23.80;51.30
31731;DHT22;18310;55.586;12.286;2022-08-11T19:46:55;23.80;51.30
31731;DHT22;18310;55.586;12.286;2022-08-11T19:50:18;23.80;51.30
31731;DHT22;18310;55.586;12.286;2022-08-11T19:53:43;23.70;51.50
31731;DHT22;18310;55.586;12.286;2022-08-11T19:57:05;23.30;51.50
31731;DHT22;18310;55.586;12.286;2022-08-11T20:00:27;23.50;51.80
31731;DHT22;18310;55.586;12.286;2022-08-11T20:03:49;23.40;52.00
31731;DHT22;18310;55.586;12.286;2022-08-11T20:07:11;23.40;52.00
31731;DHT22;18310;55.586;12.286;2022-08-11T20:10:35;23.30;52.50
31731;DHT22;18310;55.586;12.286;2022-08-11T20:13:58;23.60;52.90
31731;DHT22;18310;55.586;12.286;2022-08-11T20:17:25;23.20;52.90
31731;DHT22;18310;55.586;12.286;2022-08-11T20:20:49;23.10;53.20
31731;DHT22;18310;55.586;12.286;2022-08-11T20:24:29;23.00;53.30
31731;DHT22;18310;55.586;12.286;2022-08-11T20:27:55;22.90;53.40
31731;DHT22;18310;55.586;12.286;2022-08-11T20:31:18;22.80;53.60
31731;DHT22;18310;55.586;12.286;2022-08-11T20:34:43;22.70;53.50
31731;DHT22;18310;55.586;12.286;2022-08-11T20:38:07;22.60;53.90
31731;DHT22;18310;55.586;12.286;2022-08-11T20:41:31;22.60;54.00
31731;DHT22;18310;55.586;12.286;2022-08-11T20:45:03;22.50;54.20
31731;DHT22;18310;55.586;12.286;2022-08-11T20:48:28;22.40;54.70
31731;DHT22;18310;55.586;12.286;2022-08-11T20:51:51;22.30;54.50
31731;DHT22;18310;55.586;12.286;2022-08-11T20:55:15;22.20;54.90
31731;DHT22;18310;55.586;12.286;2022-08-11T20:58:55;23.50;55.80
31731;DHT22;18310;55.586;12.286;2022-08-11T21:02:26;22.10;55.40
31731;DHT22;18310;55.586;12.286;2022-08-11T21:05:51;23.20;56.40
31731;DHT22;18310;55.586;12.286;2022-08-11T21:09:14;21.90;55.70
31731;DHT22;18310;55.586;12.286;2022-08-11T21:12:58;22.50;56.10
31731;DHT22;18310;55.586;12.286;2022-08-11T21:16:34;21.90;55.70
31731;DHT22;18310;55.586;12.286;2022-08-11T21:20:03;21.80;56.10
31731;DHT22;18310;55.586;12.286;2022-08-11T21:23:31;21.70;56.70
31731;DHT22;18310;55.586;12.286;2022-08-11T21:26:53;22.20;57.00
31731;DHT22;18310;55.586;12.286;2022-08-11T21:30:27;21.60;55.30
31731;DHT22;18310;55.586;12.286;2022-08-11T21:33:51;20.90;55.80
31731;DHT22;18310;55.586;12.286;2022-08-11T21:37:15;21.50;56.40
31731;DHT22;18310;55.586;12.286;2022-08-11T21:40:40;21.40;56.50